Time,TemperatureF,DewpointF,PressureIn,WindDirection,WindDirectionDegrees,WindSpeedMPH,WindSpeedGustMPH,Humidity,HourlyPrecipIn,Conditions,Clouds,dailyrainin,SolarRadiationWatts/m^2,SoftwareType,DateUTC
2013-07-05 00:01:00,61.0,59.0,-100.00,SE,136,0.0,0.0,94,0.00,,,0.00,0.000000,,2013-07-05 05:01:00,
2013-07-05 00:12:00,60.0,59.0,-100.00,SE,136,0.0,0.0,96,0.00,,,0.00,0.000000,,2013-07-05 05:12:00,
2013-07-05 00:43:00,60.0,59.0,-100.00,SE,136,0.0,0.0,96,0.00,,,0.00,0.000000,,2013-07-05 05:43:00,
2013-07-05 00:52:00,60.0,59.0,-100.00,SE,136,0.0,0.0,96,0.00,,,0.00,0.000000,,2013-07-05 05:52:00,
2013-07-05 01:02:00,60.0,59.0,-100.00,SE,136,0.0,0.0,96,0.00,,,0.00,0.000000,,2013-07-05 06:02:00,
2013-07-05 01:12:00,59.0,58.0,-100.00,SE,136,0.0,2.0,96,0.00,,,-99.99,0.000000,,2013-07-05 06:12:00,
2013-07-05 01:44:00,59.0,58.0,-100.00,SE,136,0.0,2.0,96,0.00,,,-99.99,0.000000,,2013-07-05 06:44:00,
2013-07-05 01:53:00,59.0,58.0,-100.00,SE,136,0.0,2.0,96,0.00,,,-99.99,0.000000,,2013-07-05 06:53:00,
2013-07-05 02:02:00,59.0,58.0,-100.00,SE,136,0.0,2.0,96,0.00,,,-99.99,0.000000,,2013-07-05 07:02:00,
2013-07-05 02:12:00,58.0,57.0,-100.00,SE,136,0.0,1.0,96,0.00,,,0.00,0.000000,,2013-07-05 07:12:00,
2013-07-05 02:43:00,58.0,57.0,-100.00,SE,136,0.0,1.0,96,0.00,,,0.00,0.000000,,2013-07-05 07:43:00,
2013-07-05 02:53:00,58.0,57.0,-100.00,SE,136,0.0,1.0,96,0.00,,,0.00,0.000000,,2013-07-05 07:53:00,
2013-07-05 03:02:00,58.0,57.0,-100.00,SE,136,0.0,1.0,96,0.00,,,0.00,0.000000,,2013-07-05 08:02:00,
2013-07-05 03:12:00,57.0,56.0,-100.00,ESE,121,0.0,2.0,97,0.00,,,0.00,0.000000,,2013-07-05 08:12:00,
2013-07-05 03:44:00,57.0,56.0,-100.00,ESE,121,0.0,2.0,97,0.00,,,0.00,0.000000,,2013-07-05 08:44:00,
2013-07-05 03:57:00,57.0,56.0,-100.00,ESE,121,0.0,2.0,97,0.00,,,0.00,0.000000,,2013-07-05 08:57:00,
2013-07-05 04:08:00,57.0,56.0,-100.00,ESE,121,0.0,2.0,97,0.00,,,0.00,0.000000,,2013-07-05 09:08:00,
2013-07-05 04:48:00,56.0,55.0,-100.00,ESE,121,0.0,2.0,97,0.00,,,-99.99,0.000000,,2013-07-05 09:48:00,
2013-07-05 04:56:00,56.0,55.0,-100.00,ESE,121,0.0,2.0,97,0.00,,,-99.99,0.000000,,2013-07-05 09:56:00,
2013-07-05 05:06:00,56.0,55.0,-100.00,ESE,121,0.0,2.0,97,0.00,,,-99.99,0.000000,,2013-07-05 10:06:00,
2013-07-05 05:12:00,54.0,53.0,-100.00,ESE,121,0.0,0.0,96,0.00,,,0.00,0.000000,,2013-07-05 10:12:00,
2013-07-05 05:47:00,54.0,53.0,-100.00,ESE,121,0.0,0.0,96,0.00,,,0.00,0.000000,,2013-07-05 10:47:00,
2013-07-05 06:12:00,55.0,54.0,-100.00,ESE,121,0.0,0.0,97,0.00,,,0.00,15.000000,,2013-07-05 11:12:00,
2013-07-05 06:38:00,55.0,54.0,-100.00,ESE,121,0.0,0.0,97,0.00,,,0.00,15.000000,,2013-07-05 11:38:00,
2013-07-05 06:50:00,55.0,54.0,-100.00,ESE,121,0.0,0.0,97,0.00,,,0.00,15.000000,,2013-07-05 11:50:00,
2013-07-05 07:00:00,55.0,54.0,-100.00,ESE,121,0.0,0.0,97,0.00,,,0.00,15.000000,,2013-07-05 12:00:00,
2013-07-05 07:08:00,55.0,54.0,-100.00,ESE,121,0.0,0.0,97,0.00,,,0.00,15.000000,,2013-07-05 12:08:00,
2013-07-05 07:12:00,64.0,60.0,-100.00,ESE,121,0.0,0.0,88,-99.99,,,0.00,127.000000,,2013-07-05 12:12:00,
2013-07-05 07:50:00,64.0,60.0,-100.00,ESE,121,0.0,0.0,88,-99.99,,,0.00,127.000000,,2013-07-05 12:50:00,
2013-07-05 08:00:00,64.0,60.0,-100.00,ESE,121,0.0,0.0,88,-99.99,,,0.00,127.000000,,2013-07-05 13:00:00,
2013-07-05 08:12:00,70.0,63.0,-100.00,SSW,210,3.0,7.0,79,0.00,,,0.00,298.000000,,2013-07-05 13:12:00,
2013-07-05 08:49:00,70.0,63.0,-100.00,SSW,210,3.0,7.0,79,0.00,,,0.00,298.000000,,2013-07-05 13:49:00,
2013-07-05 08:58:00,70.0,63.0,-100.00,SSW,210,3.0,7.0,79,0.00,,,0.00,298.000000,,2013-07-05 13:58:00,
2013-07-05 09:07:00,70.0,63.0,-100.00,SSW,210,3.0,7.0,79,0.00,,,0.00,298.000000,,2013-07-05 14:07:00,
2013-07-05 09:12:00,76.0,65.0,-100.00,WSW,248,3.0,8.0,68,0.00,,,0.00,454.000000,,2013-07-05 14:12:00,
2013-07-05 09:39:00,76.0,65.0,-100.00,WSW,248,3.0,8.0,68,0.00,,,0.00,454.000000,,2013-07-05 14:39:00,
2013-07-05 09:47:00,76.0,65.0,-100.00,WSW,248,3.0,8.0,68,0.00,,,0.00,454.000000,,2013-07-05 14:47:00,
2013-07-05 09:57:00,76.0,65.0,-100.00,WSW,248,3.0,8.0,68,0.00,,,0.00,454.000000,,2013-07-05 14:57:00,
2013-07-05 10:43:00,80.0,64.0,-100.00,SW,229,4.0,9.0,58,0.00,,,0.00,635.000000,,2013-07-05 15:43:00,
2013-07-05 11:12:00,82.0,61.0,-100.00,SSW,201,6.0,13.0,50,0.00,,,0.00,763.000000,,2013-07-05 16:12:00,
2013-07-05 11:33:00,82.0,61.0,-100.00,SSW,201,6.0,13.0,50,0.00,,,0.00,763.000000,,2013-07-05 16:33:00,
2013-07-05 11:44:00,82.0,61.0,-100.00,SSW,201,6.0,13.0,50,0.00,,,0.00,763.000000,,2013-07-05 16:44:00,
2013-07-05 11:53:00,82.0,61.0,-100.00,SSW,201,6.0,13.0,50,0.00,,,0.00,763.000000,,2013-07-05 16:53:00,
2013-07-05 12:02:00,82.0,61.0,-100.00,SSW,201,6.0,13.0,50,0.00,,,0.00,763.000000,,2013-07-05 17:02:00,
2013-07-05 12:43:00,84.0,60.0,-100.00,SW,232,4.0,16.0,44,0.00,,,0.00,841.000000,,2013-07-05 17:43:00,
2013-07-05 12:53:00,84.0,60.0,-100.00,SW,232,4.0,16.0,44,0.00,,,0.00,841.000000,,2013-07-05 17:53:00,
2013-07-05 13:02:00,84.0,60.0,-100.00,SW,232,4.0,16.0,44,0.00,,,0.00,841.000000,,2013-07-05 18:02:00,
2013-07-05 13:11:00,84.0,60.0,-100.00,SW,232,4.0,16.0,44,0.00,,,0.00,841.000000,,2013-07-05 18:11:00,
2013-07-05 13:12:00,85.0,58.0,-100.00,SSW,199,6.0,15.0,40,0.00,,,0.00,952.000000,,2013-07-05 18:12:00,
2013-07-05 13:43:00,85.0,58.0,-100.00,SSW,199,6.0,15.0,40,0.00,,,0.00,952.000000,,2013-07-05 18:43:00,
2013-07-05 13:53:00,85.0,58.0,-100.00,SSW,199,6.0,15.0,40,0.00,,,0.00,952.000000,,2013-07-05 18:53:00,
2013-07-05 14:01:00,85.0,58.0,-100.00,SSW,199,6.0,15.0,40,0.00,,,0.00,952.000000,,2013-07-05 19:01:00,
2013-07-05 14:43:00,83.0,56.0,-100.00,SSW,195,8.0,16.0,40,0.00,,,0.00,803.000000,,2013-07-05 19:43:00,
2013-07-05 14:53:00,83.0,56.0,-100.00,SSW,195,8.0,16.0,40,0.00,,,0.00,803.000000,,2013-07-05 19:53:00,
2013-07-05 15:02:00,83.0,56.0,-100.00,SSW,195,8.0,16.0,40,0.00,,,0.00,803.000000,,2013-07-05 20:02:00,
2013-07-05 15:11:00,83.0,56.0,-100.00,SSW,195,8.0,16.0,40,0.00,,,0.00,803.000000,,2013-07-05 20:11:00,
2013-07-05 15:33:00,86.0,57.0,-100.00,SSW,210,7.0,17.0,38,0.00,,,0.00,805.000000,,2013-07-05 20:33:00,
2013-07-05 15:43:00,86.0,57.0,-100.00,SSW,210,7.0,17.0,38,0.00,,,0.00,805.000000,,2013-07-05 20:43:00,
2013-07-05 15:53:00,86.0,57.0,-100.00,SSW,210,7.0,17.0,38,0.00,,,0.00,805.000000,,2013-07-05 20:53:00,
2013-07-05 16:01:00,86.0,57.0,-100.00,SSW,210,7.0,17.0,38,0.00,,,0.00,805.000000,,2013-07-05 21:01:00,
2013-07-05 16:11:00,86.0,57.0,-100.00,SSW,210,7.0,17.0,38,0.00,,,0.00,805.000000,,2013-07-05 21:11:00,
2013-07-05 16:43:00,86.0,57.0,-100.00,SW,218,5.0,17.0,38,0.00,,,0.00,712.000000,,2013-07-05 21:43:00,
2013-07-05 16:53:00,86.0,57.0,-100.00,SW,218,5.0,17.0,38,0.00,,,0.00,712.000000,,2013-07-05 21:53:00,
2013-07-05 17:02:00,86.0,57.0,-100.00,SW,218,5.0,17.0,38,0.00,,,0.00,712.000000,,2013-07-05 22:02:00,
2013-07-05 17:11:00,86.0,57.0,-100.00,SW,218,5.0,17.0,38,0.00,,,0.00,712.000000,,2013-07-05 22:11:00,
2013-07-05 17:43:00,84.0,57.0,-100.00,SW,215,5.0,17.0,40,0.00,,,0.00,462.000000,,2013-07-05 22:43:00,
2013-07-05 17:53:00,84.0,57.0,-100.00,SW,215,5.0,17.0,40,0.00,,,0.00,462.000000,,2013-07-05 22:53:00,
2013-07-05 18:02:00,84.0,57.0,-100.00,SW,215,5.0,17.0,40,0.00,,,0.00,462.000000,,2013-07-05 23:02:00,
2013-07-05 18:11:00,84.0,57.0,-100.00,SW,215,5.0,17.0,40,0.00,,,0.00,462.000000,,2013-07-05 23:11:00,
2013-07-05 18:43:00,83.0,58.0,-100.00,SSW,200,7.0,15.0,42,0.00,,,0.00,353.000000,,2013-07-05 23:43:00,
2013-07-05 18:53:00,83.0,58.0,-100.00,SSW,200,7.0,15.0,42,0.00,,,0.00,353.000000,,2013-07-05 23:53:00,
2013-07-05 19:01:00,83.0,58.0,-100.00,SSW,200,7.0,15.0,42,0.00,,,0.00,353.000000,,2013-07-06 00:01:00,
2013-07-05 19:11:00,83.0,58.0,-100.00,SSW,200,7.0,15.0,42,0.00,,,0.00,353.000000,,2013-07-06 00:11:00,
2013-07-05 19:12:00,82.0,59.0,-100.00,SSW,204,6.0,14.0,45,0.00,,,-99.99,195.000000,,2013-07-06 00:12:00,
2013-07-05 19:43:00,82.0,59.0,-100.00,SSW,204,6.0,14.0,45,0.00,,,-99.99,195.000000,,2013-07-06 00:43:00,
2013-07-05 19:53:00,82.0,59.0,-100.00,SSW,204,6.0,14.0,45,0.00,,,-99.99,195.000000,,2013-07-06 00:53:00,
2013-07-05 20:02:00,82.0,59.0,-100.00,SSW,204,6.0,14.0,45,0.00,,,-99.99,195.000000,,2013-07-06 01:02:00,
2013-07-05 20:12:00,79.0,61.0,-100.00,South,178,2.0,13.0,55,0.00,,,0.00,93.000000,,2013-07-06 01:12:00,
2013-07-05 20:43:00,79.0,61.0,-100.00,South,178,2.0,13.0,55,0.00,,,0.00,93.000000,,2013-07-06 01:43:00,
2013-07-05 20:53:00,79.0,61.0,-100.00,South,178,2.0,13.0,55,0.00,,,0.00,93.000000,,2013-07-06 01:53:00,
2013-07-05 21:02:00,79.0,61.0,-100.00,South,178,2.0,13.0,55,0.00,,,0.00,93.000000,,2013-07-06 02:02:00,
2013-07-05 21:12:00,72.0,63.0,-100.00,SSE,163,1.0,6.0,73,0.00,,,0.00,6.000000,,2013-07-06 02:12:00,
2013-07-05 21:34:00,72.0,63.0,-100.00,SSE,163,1.0,6.0,73,0.00,,,0.00,6.000000,,2013-07-06 02:34:00,
2013-07-05 21:43:00,72.0,63.0,-100.00,SSE,163,1.0,6.0,73,0.00,,,0.00,6.000000,,2013-07-06 02:43:00,
2013-07-05 21:53:00,72.0,63.0,-100.00,SSE,163,1.0,6.0,73,0.00,,,0.00,6.000000,,2013-07-06 02:53:00,
2013-07-05 22:02:00,72.0,63.0,-100.00,SSE,163,1.0,6.0,73,0.00,,,0.00,6.000000,,2013-07-06 03:02:00,
2013-07-05 22:12:00,69.0,63.0,-100.00,SSE,167,2.0,5.0,82,0.00,,,0.00,0.000000,,2013-07-06 03:12:00,
2013-07-05 22:43:00,69.0,63.0,-100.00,SSE,167,2.0,5.0,82,0.00,,,0.00,0.000000,,2013-07-06 03:43:00,
2013-07-05 22:53:00,69.0,63.0,-100.00,SSE,167,2.0,5.0,82,0.00,,,0.00,0.000000,,2013-07-06 03:53:00,
2013-07-05 23:02:00,69.0,63.0,-100.00,SSE,167,2.0,5.0,82,0.00,,,0.00,0.000000,,2013-07-06 04:02:00,
2013-07-05 23:12:00,70.0,63.0,-100.00,South,176,2.0,5.0,79,0.00,,,0.00,0.000000,,2013-07-06 04:12:00,
2013-07-05 23:43:00,70.0,63.0,-100.00,South,176,2.0,5.0,79,0.00,,,0.00,0.000000,,2013-07-06 04:43:00,
2013-07-05 23:53:00,70.0,63.0,-100.00,South,176,2.0,5.0,79,0.00,,,0.00,0.000000,,2013-07-06 04:53:00,